3DDIA FAPF-FDNG
Flight info
| Callsign | 3DDIA |
|---|---|
| Flight time | 0h 31m |
| Altitude | 7500 |
| Route | MUVAL/N0171F090 |
| Aircraft | DA62/L-SDFGRY/C |
Departure
| Time | 2026-05-06 09:30 |
|---|---|
| Airport | Piet Retief Airport (FAPF) |
Arrival
| Time | 2026-05-06 10:01 |
|---|---|
| Airport | Piggs Peak Airport (FDNG) |
| Time | Latitude | Longitude | Altitude | Speed | Heading |
|---|---|---|---|---|---|
| 2026-05-06 09:15 | -26.99550 | 30.83752 | 4392 ft | 0 kts | 314° |
| 2026-05-06 09:21 | -26.99544 | 30.83750 | 4398 ft | 3 kts | 7° |
| 2026-05-06 09:21 | -26.99540 | 30.83752 | 4393 ft | 0 kts | 26° |
| 2026-05-06 09:22 | -26.99526 | 30.83760 | 4392 ft | 5 kts | 26° |
| 2026-05-06 09:23 | -26.99515 | 30.83766 | 4392 ft | 0 kts | 29° |
| 2026-05-06 09:23 | -26.99511 | 30.83774 | 4392 ft | 4 kts | 85° |
| 2026-05-06 09:23 | -26.99520 | 30.83806 | 4392 ft | 4 kts | 124° |
| 2026-05-06 09:24 | -26.99534 | 30.83826 | 4392 ft | 8 kts | 128° |
| 2026-05-06 09:24 | -26.99600 | 30.83913 | 4391 ft | 13 kts | 132° |
| 2026-05-06 09:24 | -26.99640 | 30.83960 | 4392 ft | 4 kts | 134° |
| 2026-05-06 09:24 | -26.99644 | 30.83965 | 4392 ft | 0 kts | 135° |
| 2026-05-06 09:25 | -26.99686 | 30.84012 | 4392 ft | 15 kts | 135° |
| 2026-05-06 09:26 | -26.99731 | 30.84063 | 4393 ft | 4 kts | 136° |
| 2026-05-06 09:26 | -26.99741 | 30.84074 | 4393 ft | 3 kts | 136° |
| 2026-05-06 09:26 | -26.99766 | 30.84098 | 4393 ft | 7 kts | 141° |
| 2026-05-06 09:26 | -26.99812 | 30.84149 | 4391 ft | 12 kts | 130° |
| 2026-05-06 09:27 | -26.99871 | 30.84227 | 4389 ft | 12 kts | 134° |
| 2026-05-06 09:27 | -26.99907 | 30.84267 | 4389 ft | 4 kts | 136° |
| 2026-05-06 09:27 | -26.99949 | 30.84311 | 4388 ft | 12 kts | 134° |
| 2026-05-06 09:27 | -26.99989 | 30.84359 | 4382 ft | 6 kts | 131° |
| 2026-05-06 09:28 | -27.00032 | 30.84413 | 4383 ft | 12 kts | 132° |
| 2026-05-06 09:28 | -27.00084 | 30.84471 | 4381 ft | 7 kts | 148° |
| 2026-05-06 09:28 | -27.00109 | 30.84479 | 4375 ft | 5 kts | 172° |
| 2026-05-06 09:28 | -27.00109 | 30.84500 | 4366 ft | 3 kts | 4° |
| 2026-05-06 09:29 | -27.00075 | 30.84465 | 4381 ft | 22 kts | 313° |
| 2026-05-06 09:29 | -26.99868 | 30.84223 | 4389 ft | 62 kts | 314° |
| 2026-05-06 09:29 | -26.99513 | 30.83807 | 4505 ft | 80 kts | 312° |
| 2026-05-06 09:29 | -26.99138 | 30.83326 | 4814 ft | 86 kts | 308° |
| 2026-05-06 09:30 | -26.98738 | 30.82755 | 5092 ft | 97 kts | 309° |
| 2026-05-06 09:30 | -26.98323 | 30.82142 | 5378 ft | 106 kts | 308° |
| 2026-05-06 09:30 | -26.97900 | 30.81465 | 5825 ft | 100 kts | 304° |
| 2026-05-06 09:30 | -26.97511 | 30.80770 | 5997 ft | 116 kts | 302° |
| 2026-05-06 09:31 | -26.97110 | 30.80008 | 6418 ft | 106 kts | 308° |
| 2026-05-06 09:31 | -26.96625 | 30.79416 | 6792 ft | 104 kts | 329° |
| 2026-05-06 09:31 | -26.95905 | 30.79590 | 7149 ft | 127 kts | 31° |
| 2026-05-06 09:31 | -26.95587 | 30.80608 | 7466 ft | 152 kts | 74° |
| 2026-05-06 09:32 | -26.95481 | 30.81884 | 7491 ft | 176 kts | 74° |
| 2026-05-06 09:32 | -26.95342 | 30.83317 | 7497 ft | 193 kts | 75° |
| 2026-05-06 09:32 | -26.95175 | 30.84855 | 7499 ft | 204 kts | 74° |
| 2026-05-06 09:32 | -26.94993 | 30.86455 | 7496 ft | 209 kts | 74° |
| 2026-05-06 09:33 | -26.94803 | 30.88078 | 7496 ft | 210 kts | 71° |
| 2026-05-06 09:33 | -26.94216 | 30.89500 | 7486 ft | 195 kts | 40° |
| 2026-05-06 09:33 | -26.93237 | 30.90471 | 7486 ft | 185 kts | 24° |
| 2026-05-06 09:33 | -26.92172 | 30.91300 | 7490 ft | 187 kts | 24° |
| 2026-05-06 09:34 | -26.91105 | 30.92176 | 7491 ft | 192 kts | 26° |
| 2026-05-06 09:34 | -26.90044 | 30.93086 | 7490 ft | 192 kts | 27° |
| 2026-05-06 09:34 | -26.88989 | 30.93993 | 7488 ft | 190 kts | 26° |
| 2026-05-06 09:34 | -26.87937 | 30.94892 | 7493 ft | 191 kts | 26° |
| 2026-05-06 09:35 | -26.86874 | 30.95797 | 7482 ft | 191 kts | 27° |
| 2026-05-06 09:35 | -26.85826 | 30.96696 | 7477 ft | 188 kts | 27° |
| 2026-05-06 09:35 | -26.84793 | 30.97576 | 7484 ft | 186 kts | 26° |
| 2026-05-06 09:35 | -26.83769 | 30.98442 | 7487 ft | 184 kts | 27° |
| 2026-05-06 09:36 | -26.82753 | 30.99307 | 7489 ft | 183 kts | 26° |
| 2026-05-06 09:36 | -26.81730 | 31.00182 | 7443 ft | 187 kts | 27° |
| 2026-05-06 09:36 | -26.80690 | 31.01071 | 7418 ft | 188 kts | 27° |
| 2026-05-06 09:36 | -26.79656 | 31.01953 | 7424 ft | 188 kts | 27° |
| 2026-05-06 09:37 | -26.78611 | 31.02840 | 7411 ft | 189 kts | 27° |
| 2026-05-06 09:37 | -26.77566 | 31.03730 | 7414 ft | 189 kts | 27° |
| 2026-05-06 09:37 | -26.76525 | 31.04619 | 7415 ft | 188 kts | 27° |
| 2026-05-06 09:37 | -26.75486 | 31.05502 | 7413 ft | 187 kts | 27° |
| 2026-05-06 09:38 | -26.74448 | 31.06385 | 7411 ft | 188 kts | 27° |
| 2026-05-06 09:38 | -26.73409 | 31.07269 | 7412 ft | 188 kts | 27° |
| 2026-05-06 09:38 | -26.72369 | 31.08153 | 7407 ft | 188 kts | 27° |
| 2026-05-06 09:38 | -26.71327 | 31.09040 | 7419 ft | 189 kts | 27° |
| 2026-05-06 09:39 | -26.70292 | 31.09922 | 7483 ft | 185 kts | 27° |
| 2026-05-06 09:39 | -26.69265 | 31.10794 | 7491 ft | 186 kts | 27° |
| 2026-05-06 09:39 | -26.68233 | 31.11670 | 7481 ft | 186 kts | 26° |
| 2026-05-06 09:39 | -26.67212 | 31.12539 | 7502 ft | 184 kts | 26° |
| 2026-05-06 09:40 | -26.66182 | 31.13410 | 7489 ft | 187 kts | 27° |
| 2026-05-06 09:40 | -26.65143 | 31.14293 | 7499 ft | 188 kts | 27° |
| 2026-05-06 09:40 | -26.63057 | 31.16059 | 7513 ft | 189 kts | 27° |
| 2026-05-06 09:41 | -26.61919 | 31.16732 | 7497 ft | 182 kts | 10° |
| 2026-05-06 09:41 | -26.60715 | 31.17106 | 7508 ft | 179 kts | 5° |
| 2026-05-06 09:41 | -26.59503 | 31.17464 | 7505 ft | 180 kts | 6° |
| 2026-05-06 09:41 | -26.58295 | 31.17831 | 7503 ft | 179 kts | 6° |
| 2026-05-06 09:42 | -26.57101 | 31.18192 | 7505 ft | 177 kts | 6° |
| 2026-05-06 09:42 | -26.55901 | 31.18552 | 7445 ft | 179 kts | 6° |
| 2026-05-06 09:42 | -26.54705 | 31.18911 | 7443 ft | 178 kts | 6° |
| 2026-05-06 09:42 | -26.53513 | 31.19269 | 7445 ft | 177 kts | 7° |
| 2026-05-06 09:43 | -26.52318 | 31.19627 | 7449 ft | 178 kts | 6° |
| 2026-05-06 09:43 | -26.51123 | 31.19986 | 7440 ft | 178 kts | 6° |
| 2026-05-06 09:43 | -26.49930 | 31.20344 | 7448 ft | 178 kts | 6° |
| 2026-05-06 09:43 | -26.48736 | 31.20702 | 7439 ft | 178 kts | 6° |
| 2026-05-06 09:44 | -26.47537 | 31.21061 | 7447 ft | 179 kts | 7° |
| 2026-05-06 09:44 | -26.46339 | 31.21422 | 7444 ft | 178 kts | 6° |
| 2026-05-06 09:44 | -26.45141 | 31.21775 | 7445 ft | 178 kts | 6° |
| 2026-05-06 09:44 | -26.43941 | 31.22115 | 7441 ft | 178 kts | 6° |
| 2026-05-06 09:45 | -26.42744 | 31.22469 | 7449 ft | 179 kts | 6° |
| 2026-05-06 09:45 | -26.41541 | 31.22830 | 7442 ft | 179 kts | 7° |
| 2026-05-06 09:45 | -26.40339 | 31.23187 | 7442 ft | 179 kts | 6° |
| 2026-05-06 09:45 | -26.39152 | 31.23554 | 7432 ft | 174 kts | 7° |
| 2026-05-06 09:46 | -26.37987 | 31.23898 | 7435 ft | 173 kts | 6° |
| 2026-05-06 09:46 | -26.36817 | 31.24246 | 7430 ft | 175 kts | 6° |
| 2026-05-06 09:46 | -26.35641 | 31.24598 | 7425 ft | 176 kts | 6° |
| 2026-05-06 09:46 | -26.34452 | 31.24955 | 7417 ft | 178 kts | 5° |
| 2026-05-06 09:47 | -26.33253 | 31.25314 | 7422 ft | 179 kts | 5° |
| 2026-05-06 09:47 | -26.32043 | 31.25676 | 7421 ft | 181 kts | 5° |
| 2026-05-06 09:47 | -26.30826 | 31.26042 | 7414 ft | 181 kts | 5° |
| 2026-05-06 09:47 | -26.29614 | 31.26405 | 7411 ft | 179 kts | 6° |
| 2026-05-06 09:48 | -26.28424 | 31.26762 | 7408 ft | 175 kts | 6° |
| 2026-05-06 09:48 | -26.27646 | 31.26997 | 7412 ft | 175 kts | 6° |
| 2026-05-06 09:48 | -26.26465 | 31.27347 | 7415 ft | 176 kts | 6° |
| 2026-05-06 09:48 | -26.25275 | 31.27705 | 7413 ft | 176 kts | 5° |
| 2026-05-06 09:49 | -26.24099 | 31.28059 | 7411 ft | 175 kts | 5° |
| 2026-05-06 09:49 | -26.22920 | 31.28407 | 7413 ft | 175 kts | 5° |
| 2026-05-06 09:49 | -26.21748 | 31.28759 | 7383 ft | 172 kts | 5° |
| 2026-05-06 09:49 | -26.20636 | 31.29075 | 7420 ft | 166 kts | 6° |
| 2026-05-06 09:50 | -26.19547 | 31.29433 | 7395 ft | 158 kts | 6° |
| 2026-05-06 09:50 | -26.18481 | 31.29739 | 7396 ft | 158 kts | 4° |
| 2026-05-06 09:50 | -26.17411 | 31.30051 | 7402 ft | 160 kts | 4° |
| 2026-05-06 09:50 | -26.16309 | 31.30379 | 7409 ft | 167 kts | 5° |
| 2026-05-06 09:51 | -26.15170 | 31.30721 | 7409 ft | 172 kts | 5° |
| 2026-05-06 09:51 | -26.13997 | 31.31071 | 7410 ft | 176 kts | 6° |
| 2026-05-06 09:51 | -26.12801 | 31.31430 | 7403 ft | 179 kts | 6° |
| 2026-05-06 09:51 | -26.11598 | 31.31788 | 7407 ft | 179 kts | 6° |
| 2026-05-06 09:52 | -26.10391 | 31.32148 | 7354 ft | 182 kts | 6° |
| 2026-05-06 09:52 | -26.09141 | 31.32517 | 7129 ft | 189 kts | 7° |
| 2026-05-06 09:52 | -26.07918 | 31.32894 | 6888 ft | 173 kts | 6° |
| 2026-05-06 09:52 | -26.06813 | 31.33230 | 6664 ft | 157 kts | 6° |
| 2026-05-06 09:53 | -26.05796 | 31.33530 | 6464 ft | 146 kts | 6° |
| 2026-05-06 09:53 | -26.04840 | 31.33813 | 6272 ft | 139 kts | 5° |
| 2026-05-06 09:53 | -26.03925 | 31.34082 | 6095 ft | 137 kts | 6° |
| 2026-05-06 09:53 | -26.02988 | 31.34354 | 5910 ft | 141 kts | 6° |
| 2026-05-06 09:54 | -26.02023 | 31.34640 | 5712 ft | 145 kts | 7° |
| 2026-05-06 09:54 | -26.01027 | 31.34936 | 5520 ft | 152 kts | 9° |
| 2026-05-06 09:54 | -25.99997 | 31.35244 | 5313 ft | 154 kts | 11° |
| 2026-05-06 09:54 | -25.98955 | 31.35556 | 5116 ft | 157 kts | 11° |
| 2026-05-06 09:55 | -25.97888 | 31.35874 | 4898 ft | 160 kts | 12° |
| 2026-05-06 09:55 | -25.96804 | 31.36196 | 4744 ft | 159 kts | 13° |
| 2026-05-06 09:55 | -25.95785 | 31.36501 | 4735 ft | 145 kts | 12° |
| 2026-05-06 09:55 | -25.94838 | 31.36778 | 4731 ft | 135 kts | 10° |
| 2026-05-06 09:56 | -25.93942 | 31.37048 | 4743 ft | 132 kts | 12° |
| 2026-05-06 09:56 | -25.93061 | 31.37313 | 4739 ft | 130 kts | 11° |
| 2026-05-06 09:56 | -25.92204 | 31.37570 | 4728 ft | 123 kts | 13° |
| 2026-05-06 09:56 | -25.91352 | 31.37845 | 4451 ft | 131 kts | 13° |
| 2026-05-06 09:57 | -25.90501 | 31.38129 | 4195 ft | 116 kts | 17° |
| 2026-05-06 09:57 | -25.89824 | 31.38349 | 3854 ft | 89 kts | 14° |
| 2026-05-06 09:57 | -25.89214 | 31.38540 | 3705 ft | 93 kts | 13° |
| 2026-05-06 09:57 | -25.88617 | 31.38724 | 3625 ft | 89 kts | 14° |
| 2026-05-06 09:58 | -25.88011 | 31.38872 | 3537 ft | 88 kts | 1° |
| 2026-05-06 09:58 | -25.87418 | 31.38799 | 3355 ft | 82 kts | 353° |
| 2026-05-06 09:58 | -25.86861 | 31.38751 | 3278 ft | 81 kts | 356° |
| 2026-05-06 09:58 | -25.86308 | 31.38763 | 3234 ft | 78 kts | 9° |
| 2026-05-06 09:59 | -25.85766 | 31.38922 | 3162 ft | 79 kts | 21° |
| 2026-05-06 09:59 | -25.85258 | 31.39222 | 3137 ft | 83 kts | 28° |
| 2026-05-06 09:59 | -25.84748 | 31.39603 | 2954 ft | 96 kts | 31° |
| 2026-05-06 09:59 | -25.84134 | 31.39915 | 2790 ft | 98 kts | 19° |
| 2026-05-06 10:00 | -25.83499 | 31.40143 | 2553 ft | 94 kts | 16° |
| 2026-05-06 10:00 | -25.82898 | 31.40349 | 2395 ft | 86 kts | 14° |
| 2026-05-06 10:00 | -25.82329 | 31.40522 | 2199 ft | 83 kts | 13° |
| 2026-05-06 10:00 | -25.81783 | 31.40688 | 2030 ft | 78 kts | 14° |
| 2026-05-06 10:01 | -25.81256 | 31.40841 | 1864 ft | 77 kts | 9° |
| 2026-05-06 10:01 | -25.80731 | 31.40978 | 1669 ft | 76 kts | 12° |
| 2026-05-06 10:01 | -25.80217 | 31.41124 | 1535 ft | 75 kts | 14° |
| 2026-05-06 10:01 | -25.79795 | 31.41251 | 1447 ft | 31 kts | 13° |
| 2026-05-06 10:02 | -25.79697 | 31.41285 | 1438 ft | 7 kts | 108° |
| 2026-05-06 10:02 | -25.79745 | 31.41270 | 1440 ft | 11 kts | 204° |
| 2026-05-06 10:02 | -25.79832 | 31.41243 | 1448 ft | 17 kts | 194° |
| 2026-05-06 10:02 | -25.79928 | 31.41215 | 1459 ft | 12 kts | 195° |
| 2026-05-06 10:03 | -25.80010 | 31.41190 | 1466 ft | 10 kts | 194° |
| 2026-05-06 10:03 | -25.80074 | 31.41172 | 1473 ft | 8 kts | 194° |
| 2026-05-06 10:03 | -25.80111 | 31.41150 | 1477 ft | 4 kts | 237° |
| 2026-05-06 10:03 | -25.80130 | 31.41152 | 1479 ft | 3 kts | 116° |
| 2026-05-06 10:04 | -25.80130 | 31.41156 | 1479 ft | 0 kts | 75° |